createdAt,value
2018-03-26T00:01:57.169Z,10.20
2018-03-26T00:04:25.429Z,11.37
2018-03-26T00:06:54.443Z,11.93
2018-03-26T00:09:22.706Z,12.18
2018-03-26T00:11:51.712Z,13.17
2018-03-26T00:14:20.727Z,13.10
2018-03-26T00:16:48.981Z,12.37
2018-03-26T00:19:18.009Z,11.40
2018-03-26T00:21:46.262Z,12.43
2018-03-26T00:24:15.288Z,11.77
2018-03-26T00:26:43.541Z,11.47
2018-03-26T00:29:12.556Z,11.90
2018-03-26T00:31:40.821Z,13.00
2018-03-26T00:34:09.969Z,12.13
2018-03-26T00:36:38.218Z,11.97
2018-03-26T00:39:06.539Z,11.35
2018-03-26T00:41:34.784Z,11.10
2018-03-26T00:44:03.054Z,11.48
2018-03-26T00:46:31.295Z,10.40
2018-03-26T00:48:59.535Z,11.43
2018-03-26T00:51:27.799Z,10.63
2018-03-26T00:53:56.040Z,10.20
2018-03-26T00:56:24.449Z,10.90
2018-03-26T00:58:53.456Z,11.20
2018-03-26T01:01:21.704Z,10.45
2018-03-26T01:03:49.970Z,10.50
2018-03-26T01:06:18.212Z,10.20
2018-03-26T01:08:46.470Z,11.00
2018-03-26T01:11:14.734Z,11.27
2018-03-26T01:13:43.758Z,11.87
2018-03-26T01:16:12.000Z,13.30
2018-03-26T01:18:40.260Z,12.63
2018-03-26T01:21:08.515Z,12.27
2018-03-26T01:23:36.748Z,11.17
2018-03-26T01:26:05.771Z,11.73
2018-03-26T01:28:34.019Z,12.17
2018-03-26T01:31:02.275Z,12.50
2018-03-26T01:33:30.540Z,11.45
2018-03-26T01:35:58.782Z,12.97
2018-03-26T01:38:27.809Z,11.47
2018-03-26T01:40:56.074Z,11.77
2018-03-26T01:43:24.324Z,11.90
2018-03-26T01:45:52.565Z,12.13
2018-03-26T01:48:20.840Z,10.73
2018-03-26T01:50:49.102Z,9.93
2018-03-26T01:53:17.364Z,10.57
2018-03-26T01:55:45.619Z,10.23
2018-03-26T01:58:13.879Z,11.00
2018-03-26T02:00:42.122Z,11.33
2018-03-26T02:03:10.405Z,10.87
2018-03-26T02:05:38.659Z,10.93
2018-03-26T02:08:07.672Z,11.53
2018-03-26T02:10:35.930Z,10.90
2018-03-26T02:13:05.013Z,10.50
2018-03-26T02:15:33.203Z,11.77
2018-03-26T02:18:02.232Z,11.73
2018-03-26T02:20:30.490Z,11.73
2018-03-26T02:22:59.496Z,11.57
2018-03-26T02:25:28.520Z,11.97
2018-03-26T02:27:56.769Z,11.93
2018-03-26T02:30:25.796Z,11.60
2018-03-26T02:32:54.049Z,10.80
2018-03-26T02:35:23.061Z,10.63
2018-03-26T02:37:51.308Z,9.83
2018-03-26T02:40:19.560Z,9.80
2018-03-26T02:42:47.804Z,11.60
2018-03-26T02:45:16.096Z,10.93
2018-03-26T02:47:44.341Z,10.30
2018-03-26T02:50:13.361Z,10.27
2018-03-26T02:52:41.636Z,11.07
2018-03-26T02:55:10.653Z,10.00
2018-03-26T02:57:38.896Z,10.18
2018-03-26T03:00:09.162Z,10.57
2018-03-26T03:02:37.413Z,10.43
2018-03-26T03:05:06.425Z,11.13
2018-03-26T03:07:34.694Z,9.87
2018-03-26T03:10:03.698Z,10.23
2018-03-26T03:12:31.967Z,10.50
2018-03-26T03:15:00.239Z,10.53
2018-03-26T03:17:29.248Z,9.97
2018-03-26T03:19:57.524Z,11.00
2018-03-26T03:22:25.791Z,10.40
2018-03-26T03:24:54.812Z,10.27
2018-03-26T03:27:23.060Z,10.57
2018-03-26T03:29:51.331Z,10.53
2018-03-26T03:32:19.575Z,9.53
2018-03-26T03:34:47.819Z,9.50
2018-03-26T03:37:16.843Z,9.17
2018-03-26T03:39:45.117Z,9.10
2018-03-26T03:42:14.275Z,23.67
2018-03-26T03:44:42.532Z,23.73
2018-03-26T03:47:10.807Z,16.45
2018-03-26T03:49:39.048Z,14.43
2018-03-26T03:52:07.317Z,14.35
2018-03-26T03:54:36.324Z,12.03
2018-03-26T03:57:04.580Z,11.30
2018-03-26T03:59:32.839Z,11.70
2018-03-26T04:02:01.084Z,11.57
2018-03-26T04:04:29.335Z,11.53
2018-03-26T04:06:58.360Z,11.83
2018-03-26T04:09:26.633Z,12.00
2018-03-26T04:11:54.875Z,12.00
2018-03-26T04:14:23.128Z,11.13
2018-03-26T04:16:51.396Z,11.23
2018-03-26T04:19:19.649Z,11.20
2018-03-26T04:21:47.908Z,10.43
2018-03-26T04:24:16.929Z,9.87
2018-03-26T04:26:45.201Z,15.50
2018-03-26T04:29:14.209Z,12.43
2018-03-26T04:31:42.448Z,9.75
2018-03-26T04:34:10.743Z,9.60
2018-03-26T04:36:38.948Z,11.33
2018-03-26T04:39:07.188Z,9.67
2018-03-26T04:41:35.453Z,10.23
2018-03-26T04:44:03.701Z,9.97
2018-03-26T04:46:31.942Z,9.70
2018-03-26T04:49:00.967Z,9.73
2018-03-26T04:51:29.216Z,10.57
2018-03-26T04:53:58.232Z,10.53
2018-03-26T04:56:27.248Z,11.17
2018-03-26T04:58:55.503Z,10.67
2018-03-26T05:01:24.615Z,10.63
2018-03-26T05:03:53.633Z,11.15
2018-03-26T05:06:21.884Z,11.20
2018-03-26T05:08:50.916Z,10.67
2018-03-26T05:11:19.165Z,10.33
2018-03-26T05:13:48.174Z,9.90
2018-03-26T05:16:16.433Z,9.83
2018-03-26T05:18:45.440Z,10.43
2018-03-26T05:21:13.687Z,9.38
2018-03-26T05:23:42.090Z,9.90
2018-03-26T05:26:11.097Z,9.83
2018-03-26T05:28:40.103Z,9.33
2018-03-26T05:31:08.426Z,9.53
2018-03-26T05:33:37.376Z,9.98
2018-03-26T05:36:05.619Z,9.07
2018-03-26T05:38:33.888Z,9.27
2018-03-26T05:41:02.137Z,8.43
2018-03-26T05:43:30.372Z,8.40
2018-03-26T05:45:58.623Z,8.17
2018-03-26T05:48:26.868Z,8.60
2018-03-26T05:50:55.121Z,8.73
2018-03-26T05:53:24.139Z,8.63
2018-03-26T05:55:52.392Z,8.75
2018-03-26T05:58:21.421Z,8.10
2018-03-26T06:00:49.676Z,8.80
2018-03-26T06:03:18.689Z,8.27
2018-03-26T06:05:47.704Z,8.33
2018-03-26T06:08:15.949Z,8.40
2018-03-26T06:10:44.960Z,8.27
2018-03-26T06:13:13.746Z,9.27
2018-03-26T06:15:42.760Z,8.65
2018-03-26T06:18:11.768Z,8.57
2018-03-26T06:20:40.021Z,8.60
2018-03-26T06:23:09.036Z,8.33
2018-03-26T06:25:37.304Z,17.80
2018-03-26T06:28:06.336Z,10.20
2018-03-26T06:30:34.616Z,12.80
2018-03-26T06:33:02.840Z,14.03
2018-03-26T06:35:31.110Z,11.65
2018-03-26T06:41:01.252Z,9.30
2018-03-26T06:43:30.389Z,9.13
2018-03-26T06:45:58.644Z,9.30
2018-03-26T06:48:27.654Z,9.83
2018-03-26T06:50:55.922Z,10.20
2018-03-26T06:53:24.929Z,9.60
2018-03-26T06:55:53.937Z,9.67
2018-03-26T06:58:22.204Z,9.30
2018-03-26T07:00:51.217Z,9.33
2018-03-26T07:03:19.459Z,10.00
2018-03-26T07:05:49.514Z,9.95
2018-03-26T07:08:17.759Z,9.90
2018-03-26T07:10:46.781Z,10.73
2018-03-26T07:13:15.485Z,10.70
2018-03-26T07:15:43.760Z,10.27
2018-03-26T07:18:12.000Z,9.63
2018-03-26T07:20:40.267Z,10.30
2018-03-26T07:23:08.524Z,9.63
2018-03-26T07:25:36.764Z,9.85
2018-03-26T07:28:05.796Z,9.83
2018-03-26T07:30:34.040Z,9.43
2018-03-26T07:33:03.052Z,10.03
2018-03-26T07:35:31.317Z,11.23
2018-03-26T07:38:00.330Z,11.27
2018-03-26T07:40:29.348Z,11.03
2018-03-26T07:42:57.624Z,10.00
2018-03-26T07:45:25.873Z,10.30
2018-03-26T07:47:54.884Z,10.40
2018-03-26T07:50:23.899Z,10.43
2018-03-26T07:52:52.159Z,9.80
2018-03-26T07:55:20.405Z,10.30
2018-03-26T07:57:49.664Z,10.43
2018-03-26T08:00:17.928Z,9.80
2018-03-26T08:02:46.176Z,9.73
2018-03-26T08:05:14.415Z,9.33
2018-03-26T08:07:42.671Z,10.63
2018-03-26T08:10:10.940Z,11.47
2018-03-26T08:12:39.947Z,9.95
2018-03-26T08:15:08.208Z,10.87
2018-03-26T08:17:37.268Z,11.43
2018-03-26T08:20:05.512Z,10.80
2018-03-26T08:22:33.779Z,10.73
2018-03-26T08:25:02.807Z,10.97
2018-03-26T08:27:31.060Z,11.15
2018-03-26T08:30:01.312Z,11.00
2018-03-26T08:32:29.606Z,11.37
2018-03-26T08:34:57.868Z,11.57
2018-03-26T08:37:26.125Z,12.40
2018-03-26T08:39:55.848Z,12.73
2018-03-26T08:42:24.134Z,11.20
2018-03-26T08:44:53.120Z,11.57
2018-03-26T08:47:21.371Z,12.35
2018-03-26T08:49:49.711Z,12.00
2018-03-26T08:52:17.880Z,12.50
2018-03-26T08:54:46.139Z,13.83
2018-03-26T08:57:15.156Z,13.00
2018-03-26T08:59:43.429Z,13.23
2018-03-26T09:02:11.667Z,13.70
2018-03-26T09:04:39.912Z,14.32
2018-03-26T09:07:08.168Z,15.87
2018-03-26T09:09:36.426Z,16.02
2018-03-26T09:12:06.691Z,17.37
2018-03-26T09:14:34.944Z,17.63
2018-03-26T09:17:03.213Z,18.13
2018-03-26T09:19:32.236Z,17.87
2018-03-26T09:22:00.491Z,18.97
2018-03-26T09:24:29.514Z,19.83
2018-03-26T09:26:57.776Z,20.15
2018-03-26T09:29:26.787Z,19.93
2018-03-26T09:31:55.047Z,19.77
2018-03-26T09:34:24.072Z,19.63
2018-03-26T09:36:52.337Z,19.17
2018-03-26T09:39:20.579Z,20.27
2018-03-26T09:41:48.835Z,19.57
2018-03-26T09:44:17.096Z,20.30
2018-03-26T09:46:45.345Z,20.20
2018-03-26T09:49:14.372Z,20.40
2018-03-26T09:51:42.632Z,21.40
2018-03-26T09:54:11.699Z,20.20
2018-03-26T09:56:39.968Z,19.40
2018-03-26T09:59:08.215Z,20.43
2018-03-26T10:04:34.161Z,21.63
2018-03-26T10:07:02.404Z,19.87
2018-03-26T10:09:30.660Z,22.45
2018-03-26T10:11:58.924Z,21.42
2018-03-26T10:14:27.187Z,21.40
2018-03-26T10:16:55.440Z,21.07
2018-03-26T10:19:23.700Z,22.67
2018-03-26T10:21:52.712Z,21.77
2018-03-26T10:24:20.960Z,20.73
2018-03-26T10:26:49.232Z,21.73
2018-03-26T10:29:17.519Z,21.83
2018-03-26T10:31:45.758Z,22.27
2018-03-26T10:34:14.014Z,21.23
2018-03-26T10:36:42.269Z,21.77
2018-03-26T10:39:10.520Z,21.13
2018-03-26T10:41:38.774Z,21.00
2018-03-26T10:44:07.020Z,22.23
2018-03-26T10:46:36.057Z,22.97
2018-03-26T10:49:04.304Z,22.00
2018-03-26T10:51:33.324Z,22.67
2018-03-26T10:54:01.597Z,23.27
2018-03-26T10:56:29.872Z,22.90
2018-03-26T10:58:58.127Z,23.33
2018-03-26T11:01:26.370Z,21.90
2018-03-26T11:03:54.632Z,23.27
2018-03-26T11:06:22.901Z,22.53
2018-03-26T11:08:51.160Z,21.50
2018-03-26T11:11:20.180Z,23.63
2018-03-26T11:13:48.460Z,23.53
2018-03-26T11:16:16.869Z,21.47
2018-03-26T11:18:45.026Z,21.73
2018-03-26T11:21:13.285Z,22.17
2018-03-26T11:23:41.541Z,21.83
2018-03-26T11:26:09.796Z,19.97
2018-03-26T11:28:38.040Z,21.73
2018-03-26T11:31:06.299Z,20.80
2018-03-26T11:33:34.548Z,21.42
2018-03-26T11:36:03.477Z,22.17
2018-03-26T11:38:32.525Z,23.10
2018-03-26T11:41:00.793Z,30.57
2018-03-26T11:43:29.040Z,24.25
2018-03-26T11:45:57.338Z,25.83
2018-03-26T11:48:25.571Z,26.53
2018-03-26T11:50:53.825Z,26.40
2018-03-26T11:53:22.089Z,23.70
2018-03-26T11:55:50.336Z,22.20
2018-03-26T11:58:18.600Z,23.20
2018-03-26T12:00:47.619Z,23.95
2018-03-26T12:03:15.899Z,23.77
2018-03-26T12:05:44.139Z,23.03
2018-03-26T12:08:12.412Z,24.23
2018-03-26T12:10:40.727Z,22.63
2018-03-26T12:13:09.753Z,21.80
2018-03-26T12:15:38.000Z,24.27
2018-03-26T12:18:07.041Z,23.47
2018-03-26T12:20:52.809Z,25.70
2018-03-26T12:23:38.780Z,24.50
2018-03-26T12:26:07.796Z,25.43
2018-03-26T12:28:53.547Z,23.80
2018-03-26T12:31:22.565Z,26.40
2018-03-26T12:34:08.340Z,25.47
2018-03-26T12:36:36.602Z,23.37
2018-03-26T12:39:05.621Z,24.42
2018-03-26T12:41:33.876Z,24.15
2018-03-26T12:44:02.897Z,25.80
2018-03-26T12:46:41.786Z,22.87
2018-03-26T12:49:10.029Z,23.47
2018-03-26T12:51:55.868Z,24.37
2018-03-26T12:54:24.125Z,23.03
2018-03-26T12:57:10.073Z,22.83
2018-03-26T12:59:38.333Z,23.33
2018-03-26T13:02:20.949Z,24.57
2018-03-26T13:04:50.445Z,23.07
2018-03-26T13:07:18.695Z,20.70
2018-03-26T13:09:47.723Z,23.23
2018-03-26T13:12:15.964Z,22.73
2018-03-26T13:14:44.221Z,23.37
2018-03-26T13:17:12.492Z,23.17
2018-03-26T13:19:40.740Z,25.00
2018-03-26T13:22:08.988Z,23.93
2018-03-26T13:24:37.268Z,23.00
2018-03-26T13:27:05.515Z,23.67
2018-03-26T13:29:33.791Z,23.77
2018-03-26T13:32:02.052Z,21.62
2018-03-26T13:34:30.308Z,23.63
2018-03-26T13:36:58.569Z,22.83
2018-03-26T13:39:27.340Z,22.10
2018-03-26T13:41:55.623Z,23.02
2018-03-26T13:44:23.853Z,21.40
2018-03-26T13:46:52.118Z,22.13
2018-03-26T13:49:21.133Z,20.98
2018-03-26T13:51:49.505Z,20.73
2018-03-26T13:54:18.522Z,20.47
2018-03-26T13:56:46.770Z,21.97
2018-03-26T13:59:15.775Z,22.33
2018-03-26T14:01:44.799Z,25.93
2018-03-26T14:04:13.055Z,28.93
2018-03-26T14:06:42.258Z,26.65
2018-03-26T14:09:28.716Z,26.30
2018-03-26T14:12:14.523Z,27.92
2018-03-26T14:15:01.101Z,27.70
2018-03-26T14:17:46.901Z,28.87
2018-03-26T14:20:15.926Z,28.97
2018-03-26T14:22:45.470Z,32.20
2018-03-26T14:25:13.713Z,30.20
2018-03-26T14:27:41.953Z,29.70
2018-03-26T14:30:10.235Z,29.50
2018-03-26T14:32:38.479Z,31.27
2018-03-26T14:38:29.027Z,30.93
2018-03-26T14:40:58.050Z,29.30
2018-03-26T14:43:26.307Z,31.20
2018-03-26T14:45:55.320Z,31.07
2018-03-26T14:48:23.572Z,29.33
2018-03-26T14:50:52.736Z,33.20
2018-03-26T14:53:20.982Z,30.43
2018-03-26T14:55:49.244Z,32.70
2018-03-26T14:58:18.264Z,30.67
2018-03-26T15:00:46.528Z,35.60
2018-03-26T15:03:14.792Z,41.40
2018-03-26T15:05:43.804Z,33.78
2018-03-26T15:08:12.808Z,32.13
2018-03-26T15:10:41.247Z,31.87
2018-03-26T15:13:10.196Z,30.77
2018-03-26T15:15:38.444Z,30.40
2018-03-26T15:18:07.475Z,30.73
2018-03-26T15:20:35.727Z,29.83
2018-03-26T15:23:04.737Z,31.73
2018-03-26T15:25:33.769Z,35.87
2018-03-26T15:28:02.018Z,30.90
2018-03-26T15:30:31.030Z,30.50
2018-03-26T15:32:59.288Z,30.53
2018-03-26T15:35:28.312Z,30.12
2018-03-26T15:37:56.581Z,30.60
2018-03-26T15:40:24.836Z,31.07
2018-03-26T15:42:53.859Z,30.03
2018-03-26T15:45:22.105Z,31.13
2018-03-26T15:47:50.386Z,30.30
2018-03-26T15:50:18.621Z,31.27
2018-03-26T15:52:46.881Z,32.33
2018-03-26T15:55:15.148Z,32.47
2018-03-26T15:57:44.151Z,31.13
2018-03-26T16:00:12.400Z,28.40
2018-03-26T16:02:45.922Z,33.50
2018-03-26T16:05:14.940Z,29.10
2018-03-26T16:07:43.181Z,31.80
2018-03-26T16:10:11.438Z,31.27
2018-03-26T16:12:39.685Z,32.53
2018-03-26T16:15:07.924Z,30.17
2018-03-26T16:17:36.953Z,29.60
2018-03-26T16:20:05.216Z,31.00
2018-03-26T16:22:34.247Z,31.30
2018-03-26T16:25:02.497Z,30.53
2018-03-26T16:27:32.747Z,31.57
2018-03-26T16:30:01.047Z,31.87
2018-03-26T16:32:29.515Z,31.42
2018-03-26T16:34:57.778Z,33.63
2018-03-26T16:37:26.037Z,31.70
2018-03-26T16:39:55.065Z,32.17
2018-03-26T16:42:27.951Z,32.90
2018-03-26T16:44:57.454Z,30.00
2018-03-26T16:47:25.699Z,32.80
2018-03-26T16:49:53.959Z,32.97
2018-03-26T16:52:22.220Z,31.50
2018-03-26T16:54:50.463Z,31.57
2018-03-26T16:57:18.764Z,32.27
2018-03-26T16:59:47.748Z,31.67
2018-03-26T17:02:16.029Z,30.17
2018-03-26T17:04:44.281Z,32.93
2018-03-26T17:07:12.536Z,33.70
2018-03-26T17:09:40.806Z,36.45
2018-03-26T17:12:09.052Z,40.97
2018-03-26T17:14:37.303Z,33.25
2018-03-26T17:17:05.586Z,36.00
2018-03-26T17:19:34.809Z,32.35
2018-03-26T17:22:03.111Z,32.85
2018-03-26T17:24:31.328Z,32.97
2018-03-26T17:26:59.599Z,33.00
2018-03-26T17:29:27.855Z,34.83
2018-03-26T17:31:56.131Z,29.73
2018-03-26T17:34:24.374Z,30.23
2018-03-26T17:36:54.630Z,31.97
2018-03-26T17:39:22.893Z,33.50
2018-03-26T17:41:51.899Z,33.03
2018-03-26T17:44:20.172Z,33.40
2018-03-26T17:46:49.188Z,32.93
2018-03-26T17:49:17.453Z,35.07
2018-03-26T17:51:45.704Z,31.10
2018-03-26T17:54:13.972Z,33.73
2018-03-26T17:56:42.216Z,33.30
2018-03-26T17:59:10.465Z,30.80
2018-03-26T18:01:39.484Z,29.37
2018-03-26T18:04:07.729Z,27.95
2018-03-26T18:06:36.017Z,29.10
2018-03-26T18:09:04.389Z,28.57
2018-03-26T18:11:32.639Z,28.43
2018-03-26T18:14:00.904Z,26.85
2018-03-26T18:16:29.172Z,22.23
2018-03-26T18:18:59.428Z,23.70
2018-03-26T18:21:27.696Z,23.40
2018-03-26T18:23:55.962Z,25.40
2018-03-26T18:26:24.204Z,24.60
2018-03-26T18:28:53.112Z,23.17
2018-03-26T18:31:22.151Z,24.40
2018-03-26T18:33:50.394Z,24.67
2018-03-26T18:36:19.425Z,25.30
2018-03-26T18:38:47.682Z,25.20
2018-03-26T18:41:15.924Z,27.17
2018-03-26T18:43:44.192Z,27.08
2018-03-26T18:46:12.436Z,26.40
2018-03-26T18:48:40.692Z,28.83
2018-03-26T18:51:08.947Z,28.37
2018-03-26T18:53:37.194Z,35.13
2018-03-26T18:56:05.447Z,37.13
2018-03-26T18:58:33.702Z,33.47
2018-03-26T19:01:02.707Z,34.53
2018-03-26T19:03:30.959Z,30.10
2018-03-26T19:05:59.212Z,27.10
2018-03-26T19:08:27.471Z,27.70
2018-03-26T19:10:55.733Z,28.17
2018-03-26T19:13:24.742Z,28.17
2018-03-26T19:15:53.008Z,27.80
2018-03-26T19:18:21.265Z,26.93
2018-03-26T19:20:49.528Z,27.43
2018-03-26T19:23:17.801Z,27.37
2018-03-26T19:25:46.060Z,27.73
2018-03-26T19:28:14.303Z,28.20
2018-03-26T19:30:43.329Z,28.83
2018-03-26T19:33:11.592Z,30.90
2018-03-26T19:35:39.846Z,31.63
2018-03-26T19:38:08.100Z,30.67
2018-03-26T19:40:37.872Z,33.42
2018-03-26T19:43:06.132Z,33.47
2018-03-26T19:45:35.155Z,31.40
2018-03-26T19:48:03.417Z,32.85
2018-03-26T19:50:32.434Z,29.73
2018-03-26T19:53:00.697Z,28.10
2018-03-26T19:55:29.728Z,29.30
2018-03-26T19:57:57.977Z,30.53
2018-03-26T20:00:26.225Z,31.30
2018-03-26T20:02:54.483Z,32.23
2018-03-26T20:05:22.736Z,29.07
2018-03-26T20:07:50.998Z,30.80
2018-03-26T20:10:19.265Z,30.73
2018-03-26T20:12:49.518Z,30.77
2018-03-26T20:15:17.780Z,30.40
2018-03-26T20:17:46.809Z,30.73
2018-03-26T20:20:15.040Z,30.23
2018-03-26T20:22:44.070Z,30.30
2018-03-26T20:25:12.350Z,30.70
2018-03-26T20:27:40.592Z,31.02
2018-03-26T20:30:08.856Z,31.03
2018-03-26T20:32:37.103Z,30.63
2018-03-26T20:35:05.369Z,31.07
2018-03-26T20:37:33.636Z,33.00
2018-03-26T20:40:02.657Z,32.53
2018-03-26T20:42:30.916Z,34.17
2018-03-26T20:44:59.934Z,36.47
2018-03-26T20:47:28.192Z,34.80
2018-03-26T20:49:57.238Z,34.40
2018-03-26T20:52:25.485Z,34.17
2018-03-26T20:54:54.625Z,36.05
2018-03-26T20:57:22.884Z,35.23
2018-03-26T20:59:51.156Z,34.13
2018-03-26T21:02:19.412Z,34.77
2018-03-26T21:04:47.665Z,33.27
2018-03-26T21:07:15.920Z,32.60
2018-03-26T21:09:44.872Z,34.47
2018-03-26T21:12:13.144Z,34.90
2018-03-26T21:14:42.162Z,36.60
2018-03-26T21:17:10.424Z,36.00
2018-03-26T21:19:39.434Z,38.60
2018-03-26T21:22:07.697Z,38.23
2018-03-26T21:24:36.710Z,36.97
2018-03-26T21:27:06.343Z,37.80
2018-03-26T21:29:34.596Z,37.27
2018-03-26T21:32:02.851Z,36.85
2018-03-26T21:34:31.120Z,36.40
2018-03-26T21:36:59.944Z,37.47
2018-03-26T21:39:28.947Z,38.30
2018-03-26T21:41:57.968Z,40.13
2018-03-26T21:44:26.226Z,36.80
2018-03-26T21:46:55.246Z,40.70
2018-03-26T21:49:23.488Z,42.67
2018-03-26T21:51:52.516Z,40.67
2018-03-26T21:54:20.772Z,44.43
2018-03-26T21:56:49.794Z,43.73
2018-03-26T21:59:18.046Z,44.37
2018-03-26T22:01:46.300Z,42.50
2018-03-26T22:04:14.541Z,42.03
2018-03-26T22:06:42.779Z,41.57
2018-03-26T22:09:12.219Z,42.83
2018-03-26T22:11:40.460Z,43.67
2018-03-26T22:14:08.723Z,41.58
2018-03-26T22:16:36.961Z,41.53
2018-03-26T22:19:05.228Z,41.30
2018-03-26T22:21:34.252Z,42.50
2018-03-26T22:24:02.519Z,41.63
2018-03-26T22:26:30.760Z,41.90
2018-03-26T22:28:59.012Z,41.27
2018-03-26T22:31:27.276Z,39.57
2018-03-26T22:33:55.531Z,40.15
2018-03-26T22:36:23.796Z,37.63
2018-03-26T22:38:52.817Z,39.87
2018-03-26T22:41:21.087Z,39.73
2018-03-26T22:43:50.093Z,37.95
2018-03-26T22:46:18.345Z,38.30
2018-03-26T22:48:47.374Z,38.97
2018-03-26T22:51:15.637Z,38.57
2018-03-26T22:53:44.656Z,37.33
2018-03-26T22:56:12.916Z,39.15
2018-03-26T22:58:41.926Z,41.00
2018-03-26T23:01:11.016Z,40.95
2018-03-26T23:03:39.262Z,41.63
2018-03-26T23:06:07.528Z,40.47
2018-03-26T23:08:35.788Z,41.90
2018-03-26T23:11:04.048Z,43.03
2018-03-26T23:13:32.304Z,41.30
2018-03-26T23:16:01.322Z,40.83
2018-03-26T23:18:29.581Z,38.30
2018-03-26T23:20:58.606Z,36.73
2018-03-26T23:23:26.860Z,38.67
2018-03-26T23:25:55.877Z,36.58
2018-03-26T23:28:24.406Z,38.10
2018-03-26T23:30:52.653Z,38.23
2018-03-26T23:33:20.892Z,39.40
2018-03-26T23:35:49.913Z,40.85
2018-03-26T23:38:18.165Z,40.35
2018-03-26T23:40:46.425Z,39.90
2018-03-26T23:43:15.725Z,39.05
2018-03-26T23:45:43.985Z,37.23
2018-03-26T23:48:12.231Z,37.10
2018-03-26T23:50:41.257Z,38.70
2018-03-26T23:53:09.514Z,40.03
2018-03-26T23:55:38.532Z,37.60
2018-03-26T23:58:06.784Z,41.53
